KLOL/LOL METAR and TAF weather

Enter ICAO airport designator
Station Type Date Time Source
KLOL METAR 2020/02/25 10:53 UTC NOAA

KLOL 251053Z AUTO 00000KT 10SM CLR M04/M17 A3045 RMK AO2 SLP320 T10441167


Station Type Date Time Source
KLOL Decoded METAR 2020/02/25 10:53 UTC NOAA

LOVELOCK DERBY FIELD, NV, United States (KLOL) 40-04N 118-34W 1189M
Feb 25, 2020 - 05:53 AM EST / 2020.02.25 1053 UTC
Wind: Calm:0
Visibility: 10 mile(s):0
Sky conditions: clear
Temperature: 24.1 F (-4.4 C)
Dew Point: 1.9 F (-16.7 C)
Relative Humidity: 37%
Pressure (altimeter): 30.45 in. Hg (1031 hPa)
ob: KLOL 251053Z AUTO 00000KT 10SM CLR M04/M17 A3045 RMK AO2 SLP320 T10441167
cycle: 11

Station Type Date Time Source
KLOL TAF 2010/01/05 05:22 UTC NOAA

TAF KLOL 050522Z 0506/0606 00000KT 1/4SM FZFG VV001
FM052000 VRB03KT 3SM BR OVC002
AMD NOT SKED

Example: see airport list